El Cerrito, CA (94530)

6:06 PM PST on February 27, 2015 (GMT -0800)
El Cerrito | Change Station
CLOSE
Current Station
Personal Weather Station
Location: El Cerrito, CA
Elevation: 79 ft
Nearby Weather Stations

Elev 79 ft 37.92 °N, 122.31 °W | Updated 19 seconds ago

Partly Cloudy
Partly Cloudy
54.9 °F
Feels Like 54.9 °F
N
7.4
Wind Variable Wind from West
Gusts 12.0 mph

Today
High -- | Low -- °F
--% Chance of Precip.
Yesterday
High -- | Low -- °F
Precip. -- in
6:43 AM 6:00 PM
Waxing Gibbous, 73% visible
Pressure 29.75 in
Visibility 10.0 miles
Clouds Scattered Clouds 2000 ft
Dew Point 44 °F
Humidity 66%
Rainfall 0.00 in
Snow Depth Not available.
UV 0 out of 12
Pollen 7.80 out of 12
Air Quality Not available.
Flu Activity Not available.
METAR KOAK 280153Z 27027G34KT 10SM SCT020 13/07 A2975 RMK AO2 PK WND 27035/0131 SLP073 T01280072

More Conditions Fewer Conditions

Pressure 29.75 in
Visibility 10.0 miles
Clouds Scattered Clouds 2000 ft
Dew Point 44 °F
Humidity 66%
Rainfall 0.00 in
Snow Depth Not available.
UV 0 out of 12
Pollen 7.80 out of 12
Air Quality Not available.
Flu Activity Not available.
METAR KOAK 280153Z 27027G34KT 10SM SCT020 13/07 A2975 RMK AO2 PK WND 27035/0131 SLP073 T01280072

More Conditions Fewer Conditions

10-Day Weather Forecast

Almanac

Astronomy

Feb. 27, 2015 Rise Set
Actual Time
Civil Twilight
Nautical Twilight
Astronomical Twilight
Moon
Length of Visible Light
Length of Day
Tomorrow will be .
, % of the Moon is Illuminated

Today's Extremes

State Highs State Lows

Community

WunderPhotos

Upload Photos

1,800,930 photos uploaded!

WunderBlogs® & News

Nearby

Air Quality

  Air Quality AQ Index Pollutant
Not available.

Snow Depth

Station Depth Elevation

Earthquake Activity

City Distance Mag. Time & Date
Minimum magnitude displayed is 2.5.

Coastal Water Temperatures

Place Temperature

Nearby Weather Stations